Time;durP1;ratioP1;P1;durP2;ratioP2;P2;SDS_P1;SDS_P2;PMS_P1;PMS_P2;Temp;Humidity;BMP_temperature;BMP_pressure;BME280_temperature;BME280_humidity;BME280_pressure;Samples;Min_cycle;Max_cycle;Signal;HPM_P1;HPM_P2
2023/03/27 00:02:01;;;;;;;13.00;2.05;;;2.10;99.90;;;;;;15504667;23;20027;-81
2023/03/27 00:08:04;;;;;;;8.20;1.60;;;2.00;99.90;;;;;;15504267;23;20480;-80
2023/03/27 00:14:06;;;;;;;6.63;1.08;;;2.10;99.90;;;;;;15502946;23;20465;-80
2023/03/27 00:20:09;;;;;;;8.02;1.38;;;2.00;99.90;;;;;;15505451;23;20086;-80
2023/03/27 00:26:12;;;;;;;11.35;1.35;;;2.10;99.90;;;;;;15504616;23;20246;-79
2023/03/27 00:32:14;;;;;;;10.10;1.73;;;1.90;99.90;;;;;;15507446;22;20453;-79
2023/03/27 00:38:17;;;;;;;7.20;1.05;;;2.00;99.90;;;;;;15434758;22;20370;-80
2023/03/27 00:44:26;;;;;;;10.20;1.23;;;1.90;99.90;;;;;;15405848;23;20060;-79
2023/03/27 00:50:35;;;;;;;16.02;2.67;;;1.80;99.90;;;;;;15423493;23;20031;-79
2023/03/27 00:56:37;;;;;;;13.02;1.70;;;1.80;99.90;;;;;;15393566;23;20549;-80
2023/03/27 01:02:41;;;;;;;13.13;1.38;;;1.70;99.90;;;;;;15428382;23;20024;-80
2023/03/27 01:08:44;;;;;;;11.17;1.30;;;1.70;99.90;;;;;;15428990;23;20031;-80
2023/03/27 01:14:53;;;;;;;8.40;1.38;;;1.60;99.90;;;;;;15404636;23;20076;-80
2023/03/27 01:20:58;;;;;;;7.80;1.48;;;1.60;99.90;;;;;;15428192;23;20071;-79
2023/03/27 01:27:11;;;;;;;7.88;1.15;;;1.50;99.90;;;;;;15427429;23;20020;-79
2023/03/27 01:33:29;;;;;;;13.55;1.55;;;1.60;99.90;;;;;;15408710;22;20358;-80
2023/03/27 01:39:52;;;;;;;11.43;1.60;;;1.50;99.90;;;;;;15480361;23;20494;-79
2023/03/27 01:46:06;;;;;;;11.50;1.35;;;1.40;99.90;;;;;;15502566;23;20031;-80
2023/03/27 01:52:17;;;;;;;10.70;1.40;;;1.60;99.90;;;;;;15505726;22;20024;-79
2023/03/27 01:58:23;;;;;;;11.05;2.50;;;1.60;99.90;;;;;;15495051;23;20017;-79
2023/03/27 02:04:32;;;;;;;17.00;2.10;;;1.50;99.90;;;;;;15505865;23;20028;-79
2023/03/27 02:10:40;;;;;;;10.93;1.50;;;1.30;99.90;;;;;;15506145;23;20028;-79
2023/03/27 02:16:47;;;;;;;9.00;1.55;;;1.30;99.90;;;;;;15502015;23;20024;-79
2023/03/27 02:22:50;;;;;;;12.65;1.15;;;1.30;99.90;;;;;;15504757;23;20026;-79
2023/03/27 02:29:24;;;;;;;7.88;1.42;;;1.30;99.90;;;;;;15504597;23;20067;-79
2023/03/27 02:35:44;;;;;;;8.98;1.55;;;1.30;99.90;;;;;;15487396;22;20474;-79
2023/03/27 02:42:12;;;;;;;18.15;1.98;;;1.20;99.90;;;;;;15515543;22;20042;-79
2023/03/27 02:48:38;;;;;;;6.38;1.30;;;1.30;99.90;;;;;;15519856;23;20024;-79
2023/03/27 02:54:47;;;;;;;9.00;1.10;;;1.20;99.90;;;;;;15522691;23;20030;-80
2023/03/27 03:00:51;;;;;;;10.70;1.58;;;1.20;99.90;;;;;;15533130;22;20017;-79
2023/03/27 03:06:54;;;;;;;9.65;1.88;;;1.20;99.90;;;;;;15538358;23;20031;-80
2023/03/27 03:12:56;;;;;;;10.73;1.38;;;1.00;99.90;;;;;;15546195;22;20072;-80
2023/03/27 03:18:58;;;;;;;9.25;1.38;;;1.10;99.90;;;;;;15567270;23;20038;-80
2023/03/27 03:25:00;;;;;;;14.07;1.40;;;1.10;99.90;;;;;;15564981;23;20047;-80
2023/03/27 03:31:03;;;;;;;9.50;1.40;;;1.10;99.90;;;;;;15569803;23;20068;-80
2023/03/27 03:37:09;;;;;;;8.65;1.52;;;1.10;99.90;;;;;;15540731;22;20020;-80
2023/03/27 03:43:11;;;;;;;9.20;1.40;;;1.00;99.90;;;;;;15530098;22;20089;-79
2023/03/27 03:49:13;;;;;;;12.88;1.50;;;1.00;99.90;;;;;;15521122;23;20034;-79
2023/03/27 03:55:15;;;;;;;9.15;1.80;;;1.00;99.90;;;;;;15517555;23;20017;-80
2023/03/27 04:01:19;;;;;;;12.30;1.83;;;0.90;99.90;;;;;;15504940;22;20086;-79
2023/03/27 04:07:22;;;;;;;9.88;1.38;;;1.00;99.90;;;;;;15492839;22;20469;-80
2023/03/27 04:13:24;;;;;;;10.50;1.85;;;1.00;99.90;;;;;;15492618;22;20027;-79
2023/03/27 04:19:26;;;;;;;10.07;1.63;;;1.00;99.90;;;;;;15489769;23;20023;-80
2023/03/27 04:25:29;;;;;;;13.10;1.90;;;1.00;99.90;;;;;;15494044;22;20102;-80
2023/03/27 04:31:33;;;;;;;14.85;1.75;;;1.10;99.90;;;;;;15490898;23;20043;-80
2023/03/27 04:37:39;;;;;;;14.17;1.50;;;1.00;99.90;;;;;;15511073;22;20026;-79
2023/03/27 04:43:41;;;;;;;5.00;1.20;;;0.90;99.90;;;;;;15507640;22;20028;-79
2023/03/27 04:49:49;;;;;;;9.48;1.40;;;0.90;99.90;;;;;;15508359;23;20050;-80
2023/03/27 04:55:51;;;;;;;10.20;1.85;;;0.70;99.90;;;;;;15505999;23;20024;-79
2023/03/27 05:01:54;;;;;;;12.90;1.98;;;0.60;99.90;;;;;;15508443;23;20050;-80
2023/03/27 05:07:56;;;;;;;16.45;2.08;;;0.50;99.90;;;;;;15513240;22;20031;-80
2023/03/27 05:13:58;;;;;;;11.38;1.92;;;0.60;99.90;;;;;;15505747;22;20051;-80
2023/03/27 05:20:02;;;;;;;4.75;1.52;;;0.70;99.90;;;;;;15507980;23;20442;-79
2023/03/27 05:26:04;;;;;;;14.25;2.88;;;0.80;99.90;;;;;;15508248;23;20588;-79
2023/03/27 05:32:06;;;;;;;11.05;1.65;;;1.00;99.90;;;;;;15509057;22;20031;-80
2023/03/27 05:38:08;;;;;;;9.45;1.75;;;1.20;99.90;;;;;;15507676;23;20046;-80
2023/03/27 05:44:11;;;;;;;5.45;1.40;;;1.30;99.90;;;;;;15506053;23;20024;-79
2023/03/27 05:50:15;;;;;;;4.30;1.33;;;1.40;99.90;;;;;;15510594;23;20051;-79
2023/03/27 05:56:17;;;;;;;14.27;1.73;;;1.50;99.90;;;;;;15510993;23;20036;-79
2023/03/27 06:02:19;;;;;;;10.15;2.15;;;1.60;99.90;;;;;;15511764;23;20047;-80
2023/03/27 06:08:22;;;;;;;8.82;1.75;;;1.80;99.90;;;;;;15512614;22;20032;-80
2023/03/27 06:14:24;;;;;;;7.10;1.15;;;2.00;99.90;;;;;;15499927;22;20019;-80
2023/03/27 06:20:26;;;;;;;6.57;1.70;;;1.80;99.90;;;;;;15509851;22;20016;-80
2023/03/27 06:26:28;;;;;;;9.95;1.80;;;1.60;99.90;;;;;;15515926;23;20086;-79
2023/03/27 06:32:30;;;;;;;11.63;2.25;;;1.90;99.90;;;;;;15512359;22;20020;-80
2023/03/27 06:38:33;;;;;;;8.05;1.95;;;2.70;99.90;;;;;;15511989;23;20482;-80
2023/03/27 06:44:35;;;;;;;8.43;1.92;;;3.10;99.90;;;;;;15508786;22;20462;-80
2023/03/27 06:50:37;;;;;;;8.27;2.75;;;2.80;99.90;;;;;;15502422;22;20024;-81
2023/03/27 06:56:39;;;;;;;9.25;2.10;;;2.40;99.90;;;;;;15503317;23;20097;-80
2023/03/27 07:02:41;;;;;;;6.30;1.85;;;2.60;99.90;;;;;;15500417;23;20024;-80
2023/03/27 07:08:44;;;;;;;10.18;2.25;;;2.70;99.90;;;;;;15498722;23;20043;-80
2023/03/27 07:14:50;;;;;;;8.45;1.70;;;2.60;99.90;;;;;;15498815;23;20017;-80
2023/03/27 07:20:52;;;;;;;6.65;1.67;;;2.50;99.90;;;;;;15496876;22;20105;-80
2023/03/27 07:26:54;;;;;;;7.50;2.03;;;2.70;99.90;;;;;;15489606;23;20311;-80
2023/03/27 07:32:57;;;;;;;8.30;1.92;;;2.90;99.90;;;;;;15490739;22;20024;-80
2023/03/27 07:39:00;;;;;;;7.43;1.33;;;3.10;99.90;;;;;;15483470;23;20054;-80
2023/03/27 07:45:02;;;;;;;13.48;2.08;;;3.20;99.90;;;;;;15493158;22;20024;-80
2023/03/27 07:51:05;;;;;;;8.02;2.10;;;3.40;99.90;;;;;;15493288;22;20538;-80
2023/03/27 07:57:14;;;;;;;6.53;1.40;;;3.60;99.90;;;;;;15492514;23;20035;-80
2023/03/27 08:03:17;;;;;;;4.63;1.30;;;3.90;99.90;;;;;;15490903;23;20028;-81
2023/03/27 08:09:20;;;;;;;13.90;1.80;;;4.10;99.90;;;;;;15494023;23;20028;-81
2023/03/27 08:15:23;;;;;;;9.05;1.45;;;4.00;99.90;;;;;;15491876;23;20103;-80
2023/03/27 08:21:27;;;;;;;6.47;1.48;;;3.90;99.90;;;;;;15495106;22;20115;-80
2023/03/27 08:27:30;;;;;;;5.35;1.63;;;4.40;99.90;;;;;;15490826;23;20493;-81
2023/03/27 08:33:32;;;;;;;15.83;2.10;;;4.10;99.90;;;;;;15485681;22;20433;-80
2023/03/27 08:39:34;;;;;;;12.13;1.83;;;4.20;99.90;;;;;;15489809;23;20526;-80
2023/03/27 08:45:45;;;;;;;7.45;1.30;;;4.10;99.90;;;;;;15490931;22;20726;-79
2023/03/27 08:51:59;;;;;;;5.13;1.30;;;4.40;99.90;;;;;;15490299;23;20024;-80
2023/03/27 08:58:01;;;;;;;8.75;1.90;;;4.80;99.90;;;;;;15486630;23;20039;-79
2023/03/27 09:04:06;;;;;;;7.82;1.10;;;4.80;99.90;;;;;;15486309;23;20028;-80
2023/03/27 09:10:26;;;;;;;3.15;0.90;;;4.80;99.90;;;;;;15488807;23;20099;-80
2023/03/27 09:16:39;;;;;;;8.52;2.05;;;4.90;99.90;;;;;;15489212;23;20028;-79
2023/03/27 09:22:52;;;;;;;8.07;0.93;;;4.70;99.90;;;;;;15490266;23;20096;-80
2023/03/27 09:29:02;;;;;;;6.53;1.20;;;5.10;99.90;;;;;;15486370;23;20337;-79
2023/03/27 09:35:05;;;;;;;4.22;0.90;;;5.30;99.90;;;;;;15487959;22;20024;-80
2023/03/27 09:41:12;;;;;;;9.32;1.15;;;5.20;99.90;;;;;;15486521;22;20292;-80
2023/03/27 09:47:22;;;;;;;4.80;0.80;;;5.50;99.90;;;;;;15491386;22;20028;-79
2023/03/27 09:53:26;;;;;;;7.82;1.00;;;5.80;99.90;;;;;;15485781;22;20017;-80
2023/03/27 09:59:36;;;;;;;4.77;0.93;;;5.50;99.90;;;;;;15490286;23;20016;-80
2023/03/27 10:05:39;;;;;;;8.35;1.00;;;5.50;99.90;;;;;;15488050;23;20309;-80
2023/03/27 10:11:41;;;;;;;8.30;0.93;;;5.90;99.90;;;;;;15490514;22;20048;-80
2023/03/27 10:17:47;;;;;;;3.58;0.65;;;6.30;99.90;;;;;;15487949;23;20012;-80
2023/03/27 10:23:50;;;;;;;3.85;0.90;;;5.70;99.90;;;;;;15481719;22;20028;-79
2023/03/27 10:29:52;;;;;;;2.70;0.60;;;5.20;99.90;;;;;;15508152;23;20296;-80
2023/03/27 10:35:55;;;;;;;3.15;0.68;;;4.10;99.90;;;;;;15492995;22;20020;-80
2023/03/27 10:42:04;;;;;;;3.97;0.70;;;3.50;99.90;;;;;;15501458;23;20020;-81
2023/03/27 10:48:07;;;;;;;5.28;1.20;;;3.50;99.90;;;;;;15503797;23;20024;-80
2023/03/27 10:54:14;;;;;;;5.65;0.98;;;4.10;99.90;;;;;;15499874;23;20016;-80
2023/03/27 11:00:40;;;;;;;2.60;0.70;;;4.90;99.90;;;;;;15506960;23;20028;-80
2023/03/27 11:06:43;;;;;;;3.53;0.70;;;5.70;99.90;;;;;;15504219;23;20016;-80
2023/03/27 11:12:54;;;;;;;5.75;0.80;;;6.30;99.90;;;;;;15505660;23;20024;-80
2023/03/27 11:19:27;;;;;;;6.43;0.80;;;5.60;99.90;;;;;;15516597;23;20397;-81
2023/03/27 11:25:45;;;;;;;3.65;0.63;;;3.00;99.90;;;;;;15501295;23;20051;-80
2023/03/27 11:31:51;;;;;;;3.60;0.90;;;2.30;99.90;;;;;;15510590;22;20027;-81
2023/03/27 11:38:00;;;;;;;3.55;0.80;;;2.20;99.90;;;;;;15508457;22;20028;-81
2023/03/27 11:44:02;;;;;;;6.05;1.00;;;3.20;99.90;;;;;;15502832;23;20050;-81
2023/03/27 11:50:16;;;;;;;2.90;0.80;;;4.20;99.90;;;;;;15503738;23;20111;-80
2023/03/27 11:56:46;;;;;;;5.00;1.15;;;4.90;99.90;;;;;;15445015;23;20044;-80
2023/03/27 12:03:12;;;;;;;3.88;1.02;;;5.20;99.90;;;;;;15504008;22;20110;-80
2023/03/27 12:09:37;;;;;;;7.13;1.20;;;5.80;99.90;;;;;;15501246;23;20020;-80
2023/03/27 12:15:42;;;;;;;5.10;1.40;;;6.00;99.90;;;;;;15496798;23;20020;-79
2023/03/27 12:22:04;;;;;;;;;;;5.90;99.90;;;;;;15500978;22;20020;-79
2023/03/27 12:28:56;;;;;;;3.53;0.75;;;5.50;99.90;;;;;;15503360;23;20235;-80
2023/03/27 12:35:05;;;;;;;5.50;0.98;;;4.70;99.90;;;;;;15441621;22;20016;-80
2023/03/27 12:41:30;;;;;;;2.10;0.80;;;4.10;99.90;;;;;;15404052;23;20472;-81
2023/03/27 12:47:31;;;;;;;3.58;1.00;;;3.70;99.90;;;;;;15405095;23;20577;-80
2023/03/27 12:53:33;;;;;;;5.05;1.02;;;3.50;99.90;;;;;;15428019;23;20059;-80
2023/03/27 12:59:47;;;;;;;4.97;0.88;;;4.20;99.90;;;;;;15429213;23;20048;-80
2023/03/27 13:06:32;;;;;;;2.67;0.90;;;5.30;99.90;;;;;;15425838;23;20029;-80
2023/03/27 13:12:52;;;;;;;6.40;0.55;;;5.50;99.90;;;;;;15428166;23;20056;-81
2023/03/27 13:19:16;;;;;;;4.05;0.60;;;5.20;99.90;;;;;;15408475;23;20013;-80
2023/03/27 13:25:26;;;;;;;0.73;0.40;;;5.40;99.90;;;;;;15413646;23;20053;-79
2023/03/27 13:31:48;;;;;;;2.35;0.50;;;5.90;99.90;;;;;;15424152;23;20318;-80
2023/03/27 13:37:50;;;;;;;3.05;0.40;;;6.00;99.90;;;;;;15487428;23;20473;-79
2023/03/27 13:43:53;;;;;;;2.60;0.52;;;6.40;99.90;;;;;;15479030;22;20106;-79
2023/03/27 13:50:10;;;;;;;2.97;0.40;;;6.10;99.90;;;;;;15506577;23;20043;-80
2023/03/27 13:56:21;;;;;;;1.77;0.63;;;6.20;99.90;;;;;;15482562;23;20012;-79
2023/03/27 14:03:09;;;;;;;1.77;0.50;;;6.30;99.90;;;;;;15484661;23;20373;-79
2023/03/27 14:09:55;;;;;;;7.07;1.48;;;5.80;99.90;;;;;;15506133;23;20077;-80
2023/03/27 14:16:15;;;;;;;;;;;5.90;99.90;;;;;;15480282;23;20031;-79
2023/03/27 14:22:49;;;;;;;3.17;0.65;;;6.20;99.90;;;;;;15479825;23;19924;-78
2023/03/27 14:28:54;;;;;;;2.70;0.60;;;6.90;99.90;;;;;;15493543;23;20094;-79
2023/03/27 14:35:03;;;;;;;2.85;0.40;;;6.90;99.90;;;;;;15504470;22;20516;-80
2023/03/27 14:41:20;;;;;;;3.75;0.65;;;6.60;99.90;;;;;;15481247;23;20019;-80
2023/03/27 14:47:22;;;;;;;2.42;0.65;;;7.00;99.90;;;;;;15478966;23;20016;-80
2023/03/27 14:53:35;;;;;;;3.42;0.50;;;6.80;99.90;;;;;;15507897;22;20028;-79
2023/03/27 14:59:41;;;;;;;3.10;0.50;;;5.10;99.90;;;;;;15504854;22;20020;-80
2023/03/27 15:05:56;;;;;;;4.15;0.52;;;5.20;99.90;;;;;;15507795;23;20485;-82
2023/03/27 15:12:00;;;;;;;1.27;0.25;;;5.60;99.90;;;;;;15503883;22;20477;-80
2023/03/27 15:18:10;;;;;;;4.88;1.05;;;6.00;99.90;;;;;;15502783;22;20127;-80
2023/03/27 15:24:44;;;;;;;1.65;0.50;;;6.30;99.90;;;;;;15490413;23;20535;-81
2023/03/27 15:30:56;;;;;;;4.50;0.63;;;6.70;99.90;;;;;;15503468;23;20023;-81
2023/03/27 15:37:04;;;;;;;2.25;0.63;;;6.30;99.90;;;;;;15497763;22;20099;-80
2023/03/27 15:43:20;;;;;;;4.63;0.60;;;5.70;99.90;;;;;;15499537;23;20023;-81
2023/03/27 15:49:27;;;;;;;7.32;1.10;;;5.30;99.90;;;;;;15484792;23;20028;-80
2023/03/27 15:55:54;;;;;;;2.35;0.70;;;5.40;99.90;;;;;;15492930;23;20215;-81
2023/03/27 16:02:04;;;;;;;3.53;0.57;;;5.60;99.90;;;;;;15494414;22;20023;-81
2023/03/27 16:08:08;;;;;;;2.83;0.70;;;5.80;99.90;;;;;;15492404;23;20121;-82
2023/03/27 16:14:30;;;;;;;4.22;0.70;;;6.20;99.90;;;;;;15490936;23;20114;-81
2023/03/27 16:20:37;;;;;;;2.85;0.82;;;6.30;99.90;;;;;;15487288;23;20012;-81
2023/03/27 16:26:39;;;;;;;3.58;1.05;;;6.80;99.90;;;;;;15492185;23;20039;-80
2023/03/27 16:32:41;;;;;;;4.95;0.82;;;6.90;99.90;;;;;;15493151;22;20055;-80
2023/03/27 16:38:43;;;;;;;6.32;1.40;;;6.70;99.90;;;;;;15492365;23;20030;-80
2023/03/27 16:44:45;;;;;;;5.40;0.95;;;6.20;99.90;;;;;;15485271;23;20462;-80
2023/03/27 16:50:47;;;;;;;6.78;0.88;;;5.90;99.90;;;;;;15483469;22;20081;-80
2023/03/27 16:56:50;;;;;;;7.03;0.45;;;5.80;99.90;;;;;;15480640;23;20020;-80
2023/03/27 17:02:53;;;;;;;2.72;0.50;;;5.70;99.90;;;;;;15488377;23;20028;-81
2023/03/27 17:08:55;;;;;;;4.68;0.70;;;5.70;99.90;;;;;;15506390;22;20024;-82
2023/03/27 17:14:57;;;;;;;4.68;0.80;;;5.60;99.90;;;;;;15486643;23;20016;-81
2023/03/27 17:20:59;;;;;;;4.95;0.80;;;5.70;99.90;;;;;;15485648;22;20698;-81
2023/03/27 17:27:01;;;;;;;4.32;0.65;;;5.40;99.90;;;;;;15488414;23;20539;-81
2023/03/27 17:33:03;;;;;;;4.78;0.70;;;5.10;99.90;;;;;;15481525;22;20026;-81
2023/03/27 17:39:06;;;;;;;3.47;0.65;;;5.00;99.90;;;;;;15488545;23;20317;-81
2023/03/27 17:45:08;;;;;;;4.82;0.80;;;4.90;99.90;;;;;;15491608;23;20106;-81
2023/03/27 17:51:10;;;;;;;2.80;0.73;;;4.80;99.90;;;;;;15487797;23;20024;-81
2023/03/27 17:57:12;;;;;;;5.93;1.33;;;4.60;99.90;;;;;;15488696;23;20012;-81
2023/03/27 18:03:15;;;;;;;4.38;0.73;;;4.40;99.90;;;;;;15486743;22;20020;-81
2023/03/27 18:09:18;;;;;;;4.60;0.80;;;4.30;99.90;;;;;;15489799;23;20386;-80
2023/03/27 18:15:20;;;;;;;3.92;0.80;;;4.30;99.90;;;;;;15488369;23;20028;-80
2023/03/27 18:21:22;;;;;;;3.53;0.60;;;4.10;99.90;;;;;;15494304;23;20031;-81
2023/03/27 18:27:24;;;;;;;6.78;1.25;;;4.10;99.90;;;;;;15490243;23;20099;-82
2023/03/27 18:33:27;;;;;;;7.53;1.27;;;4.10;99.90;;;;;;15486078;22;20027;-80
2023/03/27 18:39:33;;;;;;;5.07;1.02;;;4.00;99.90;;;;;;15490657;23;20027;-81
2023/03/27 18:45:35;;;;;;;6.53;0.98;;;4.00;99.90;;;;;;15490438;22;20043;-81
2023/03/27 18:51:37;;;;;;;9.18;1.02;;;4.00;99.90;;;;;;15491270;23;20146;-81
2023/03/27 18:57:39;;;;;;;4.65;0.70;;;4.10;99.90;;;;;;15486881;23;20747;-80
2023/03/27 19:03:42;;;;;;;4.63;0.70;;;4.10;99.90;;;;;;15491434;22;20020;-82
2023/03/27 19:09:45;;;;;;;7.05;0.90;;;4.00;99.90;;;;;;15486102;23;20042;-81
2023/03/27 19:15:47;;;;;;;4.22;0.77;;;3.90;99.90;;;;;;15487447;23;20020;-81
2023/03/27 19:21:50;;;;;;;3.00;0.90;;;4.00;99.90;;;;;;15496123;22;20024;-81
2023/03/27 19:27:51;;;;;;;3.47;0.80;;;3.90;99.90;;;;;;15501626;22;20117;-80
2023/03/27 19:33:53;;;;;;;6.53;1.27;;;3.90;99.90;;;;;;15493537;22;20028;-81
2023/03/27 19:39:58;;;;;;;8.10;1.02;;;3.50;99.90;;;;;;15495271;23;20039;-81
2023/03/27 19:46:00;;;;;;;;;;;3.30;99.90;;;;;;15492826;23;20036;-81
2023/03/27 19:52:18;;;;;;;3.95;0.93;;;3.30;99.90;;;;;;15494402;22;19919;-80
2023/03/27 19:58:21;;;;;;;3.27;0.80;;;3.20;99.90;;;;;;15498209;23;20030;-81
2023/03/27 20:04:23;;;;;;;6.57;0.73;;;3.30;99.90;;;;;;15493663;23;20067;-81
2023/03/27 20:10:25;;;;;;;4.55;0.65;;;3.30;99.90;;;;;;15493370;22;20481;-81
2023/03/27 20:16:28;;;;;;;6.22;0.95;;;3.40;99.90;;;;;;15498143;23;20124;-81
2023/03/27 20:22:32;;;;;;;3.20;0.70;;;3.40;99.90;;;;;;15494194;23;20070;-81
2023/03/27 20:28:44;;;;;;;5.57;0.88;;;3.30;99.90;;;;;;15499522;22;20100;-80
2023/03/27 20:34:47;;;;;;;6.07;0.70;;;3.20;99.90;;;;;;15492353;22;20568;-80
2023/03/27 20:40:51;;;;;;;2.95;0.90;;;3.30;99.90;;;;;;15494282;23;20067;-80
2023/03/27 20:47:02;;;;;;;5.28;0.77;;;3.20;99.90;;;;;;15494432;23;20389;-81
2023/03/27 20:53:03;;;;;;;10.55;1.10;;;3.20;99.90;;;;;;15495096;22;20032;-80
2023/03/27 20:59:06;;;;;;;7.53;1.00;;;3.20;99.90;;;;;;15500004;23;20027;-80
2023/03/27 21:05:08;;;;;;;9.65;0.98;;;3.10;99.90;;;;;;15495317;23;20031;-80
2023/03/27 21:11:10;;;;;;;4.05;0.70;;;3.10;99.90;;;;;;15500826;22;20054;-81
2023/03/27 21:17:12;;;;;;;8.25;1.10;;;3.10;99.90;;;;;;15500072;23;20621;-81
2023/03/27 21:23:14;;;;;;;5.45;0.93;;;2.90;99.90;;;;;;15506011;23;20040;-81
2023/03/27 21:29:16;;;;;;;5.45;1.13;;;2.90;99.90;;;;;;15509960;23;20035;-80
2023/03/27 21:35:18;;;;;;;11.90;1.40;;;2.80;99.90;;;;;;15525002;22;20063;-80
2023/03/27 21:41:21;;;;;;;7.97;1.25;;;2.80;99.90;;;;;;15537505;22;20028;-81
2023/03/27 21:47:23;;;;;;;8.57;1.58;;;2.80;99.90;;;;;;15549811;23;20020;-80
2023/03/27 21:53:38;;;;;;;5.40;1.17;;;2.90;99.90;;;;;;15547841;22;20056;-82
2023/03/27 21:59:40;;;;;;;7.35;1.27;;;3.00;99.90;;;;;;15523796;23;20081;-80
2023/03/27 22:05:42;;;;;;;5.63;1.20;;;3.00;99.90;;;;;;15505976;23;20103;-81
2023/03/27 22:11:55;;;;;;;7.85;1.30;;;2.90;99.90;;;;;;15500408;23;20027;-80
2023/03/27 22:17:57;;;;;;;4.40;1.02;;;2.80;99.90;;;;;;15496095;23;20020;-80
2023/03/27 22:23:59;;;;;;;6.55;1.20;;;2.70;99.90;;;;;;15491997;22;20031;-81
2023/03/27 22:30:02;;;;;;;9.32;1.52;;;2.60;99.90;;;;;;15490913;23;20024;-80
2023/03/27 22:36:07;;;;;;;10.73;1.90;;;2.60;99.90;;;;;;15497792;22;20027;-80
2023/03/27 22:42:09;;;;;;;6.28;1.17;;;2.60;99.90;;;;;;15495465;22;20035;-79
2023/03/27 22:48:12;;;;;;;9.75;1.60;;;2.60;99.90;;;;;;15505723;23;20031;-80
2023/03/27 22:54:14;;;;;;;14.38;1.75;;;2.50;99.90;;;;;;15500852;23;20528;-80
2023/03/27 23:00:16;;;;;;;9.88;1.40;;;2.50;99.90;;;;;;15503190;23;20338;-80
2023/03/27 23:06:20;;;;;;;10.15;1.42;;;2.40;99.90;;;;;;15506989;22;20031;-80
2023/03/27 23:12:22;;;;;;;10.90;1.30;;;2.40;99.90;;;;;;15499739;23;20050;-81
2023/03/27 23:18:24;;;;;;;13.70;1.65;;;2.50;99.90;;;;;;15506926;23;20021;-81
2023/03/27 23:24:26;;;;;;;11.77;1.92;;;2.40;99.90;;;;;;15503105;22;20466;-79
2023/03/27 23:30:28;;;;;;;10.05;1.20;;;2.40;99.90;;;;;;15501252;22;20094;-80
2023/03/27 23:36:30;;;;;;;10.63;1.50;;;2.50;99.90;;;;;;15495764;22;20103;-80
2023/03/27 23:42:32;;;;;;;9.27;1.55;;;2.30;99.90;;;;;;15495234;23;20051;-79
2023/03/27 23:48:34;;;;;;;14.75;1.80;;;2.40;99.90;;;;;;15497693;23;20028;-80
2023/03/27 23:54:36;;;;;;;12.38;1.92;;;2.60;99.90;;;;;;15495686;23;20047;-80
